Main page
Satellite images 15-day forecastsClimateMarine weather Cyclones Lightning AirportsFAQ Newsletter About
Weather : Europe Africa North America South America Asia Australia-Oceania Others
Languages Contact

London, England

City airport

latitude: 51-30N, longitude: 000-03E, elevation: 5 m


METAR: EGLC 230950Z 17010KT 140V230 9999 SCT030 16/08 Q1018
short-TAF: EGLC 230803Z 2309/2318 10006KT 9999 FEW030 BECMG 2309/2312 18010KT PROB40 TEMPO 2312/2315 6000 SHRA
long-TAF: missing

Time: 10:58 (09:58 UTC)

Current weather observation

The report was made 8 minutes ago, at 09:50 UTC  
Wind 10 kt from south, varying between southeast and southwest
Temperature 16°C
Humidity 59%
Pressure 1018 hPa
Visibility 10 km or more
Scattered clouds at a height of 3000 ft

Change units

Forecast

The report was made 1 hour and 43 minutes ago, at 08:15 UTC  
Forecast valid from 23 at 09 UTC to 23 at 18 UTC
Wind 06 kt from east
Visibility 10 km or more
Few clouds at a height of 3000 ft
Becoming
from 23 at 09 UTC to 23 at 12 UTC
Wind 10 kt from south
Probability 40% :
Temporary
from 23 at 12 UTC to 23 at 15 UTC
Visibility 6000 m
rain showers
The information on this site is subject to a disclaimer
Weather : Europe Africa North America South America Asia Australia-Oceania Others
Satellite images 15-day forecastsClimateMarine weather Cyclones Lightning AirportsFAQ Languages Contact Newsletter About